createdAt,value
2023-04-09T00:01:33.651Z,99.90
2023-04-09T00:04:01.750Z,99.90
2023-04-09T00:06:29.675Z,99.90
2023-04-09T00:08:57.645Z,99.90
2023-04-09T00:11:25.714Z,99.90
2023-04-09T00:13:53.539Z,99.90
2023-04-09T00:16:21.467Z,99.90
2023-04-09T00:18:51.755Z,99.90
2023-04-09T00:21:20.535Z,99.90
2023-04-09T00:23:48.467Z,99.90
2023-04-09T00:26:16.458Z,99.90
2023-04-09T00:28:44.715Z,99.90
2023-04-09T00:31:13.305Z,99.90
2023-04-09T00:33:41.209Z,99.90
2023-04-09T00:36:10.641Z,99.90
2023-04-09T00:38:38.569Z,99.90
2023-04-09T00:41:06.449Z,99.90
2023-04-09T00:43:34.397Z,99.90
2023-04-09T00:46:02.629Z,99.90
2023-04-09T00:48:30.558Z,99.90
2023-04-09T00:50:58.474Z,99.90
2023-04-09T00:53:28.023Z,99.90
2023-04-09T00:55:56.696Z,99.90
2023-04-09T00:58:24.615Z,99.90
2023-04-09T01:00:52.573Z,99.90
2023-04-09T01:03:20.818Z,99.90
2023-04-09T01:05:55.432Z,99.90
2023-04-09T01:08:34.391Z,99.90
2023-04-09T01:11:11.158Z,99.90
2023-04-09T01:13:48.282Z,99.90
2023-04-09T01:16:18.071Z,99.90
2023-04-09T01:18:53.599Z,99.90
2023-04-09T01:21:24.354Z,99.90
2023-04-09T01:24:03.688Z,99.90
2023-04-09T01:26:54.731Z,99.90
2023-04-09T01:29:31.443Z,99.90
2023-04-09T01:32:01.533Z,99.90
2023-04-09T01:34:30.145Z,99.90
2023-04-09T01:37:00.488Z,99.90
2023-04-09T01:39:29.254Z,99.90
2023-04-09T01:41:58.127Z,99.90
2023-04-09T01:44:29.127Z,99.90
2023-04-09T01:46:58.661Z,99.90
2023-04-09T01:49:27.022Z,99.90
2023-04-09T01:51:55.482Z,99.90
2023-04-09T01:54:23.588Z,99.90
2023-04-09T01:56:51.651Z,99.90
2023-04-09T01:59:19.752Z,99.90
2023-04-09T02:01:55.549Z,99.90
2023-04-09T02:04:27.795Z,99.90
2023-04-09T02:07:00.698Z,99.90
2023-04-09T02:09:32.055Z,99.90
2023-04-09T02:12:02.749Z,99.90
2023-04-09T02:14:33.407Z,99.90
2023-04-09T02:17:03.068Z,99.90
2023-04-09T02:19:40.298Z,99.90
2023-04-09T02:22:08.877Z,99.90
2023-04-09T02:24:37.358Z,99.90
2023-04-09T02:27:06.062Z,99.90
2023-04-09T02:29:34.451Z,99.90
2023-04-09T02:32:03.916Z,99.90
2023-04-09T02:34:31.763Z,99.90
2023-04-09T02:36:59.644Z,99.90
2023-04-09T02:39:28.130Z,99.90
2023-04-09T02:41:56.099Z,99.90
2023-04-09T02:44:24.034Z,99.90
2023-04-09T02:46:52.581Z,99.90
2023-04-09T02:49:22.233Z,99.90
2023-04-09T02:51:50.144Z,99.90
2023-04-09T02:54:18.066Z,99.90
2023-04-09T02:56:45.897Z,99.90
2023-04-09T02:59:13.786Z,99.90
2023-04-09T03:01:41.701Z,99.90
2023-04-09T03:04:10.169Z,99.90
2023-04-09T03:06:39.426Z,99.90
2023-04-09T03:09:07.302Z,99.90
2023-04-09T03:11:35.358Z,99.90
2023-04-09T03:14:03.216Z,99.90
2023-04-09T03:16:31.143Z,99.90
2023-04-09T03:18:58.982Z,99.90
2023-04-09T03:21:27.409Z,99.90
2023-04-09T03:23:56.686Z,99.90
2023-04-09T03:26:24.733Z,99.90
2023-04-09T03:28:52.841Z,99.90
2023-04-09T03:31:21.015Z,99.90
2023-04-09T03:33:49.372Z,99.90
2023-04-09T03:36:17.233Z,99.90
2023-04-09T03:39:02.941Z,99.90
2023-04-09T03:41:37.273Z,99.90
2023-04-09T03:44:09.443Z,99.90
2023-04-09T03:47:00.655Z,99.90
2023-04-09T03:49:29.732Z,99.90
2023-04-09T03:52:04.401Z,99.90
2023-04-09T03:54:39.640Z,99.90
2023-04-09T03:57:13.884Z,99.90
2023-04-09T03:59:45.192Z,99.90
2023-04-09T04:02:14.704Z,99.90
2023-04-09T04:04:48.445Z,99.90
2023-04-09T04:07:17.545Z,99.90
2023-04-09T04:09:51.212Z,99.90
2023-04-09T04:12:20.274Z,99.90
2023-04-09T04:15:11.274Z,99.90
2023-04-09T04:17:45.380Z,99.90
2023-04-09T04:20:22.093Z,99.90
2023-04-09T04:22:57.734Z,99.90
2023-04-09T04:25:28.832Z,99.90
2023-04-09T04:27:57.700Z,99.90
2023-04-09T04:30:33.201Z,99.90
2023-04-09T04:33:07.332Z,99.90
2023-04-09T04:35:43.110Z,99.90
2023-04-09T04:38:27.065Z,99.90
2023-04-09T04:40:57.176Z,99.90
2023-04-09T04:43:25.552Z,99.90
2023-04-09T04:45:57.249Z,99.90
2023-04-09T04:48:28.085Z,99.90
2023-04-09T04:50:57.276Z,99.90
2023-04-09T04:53:27.084Z,99.90
2023-04-09T04:55:57.686Z,99.90
2023-04-09T04:58:28.132Z,99.90
2023-04-09T05:01:00.407Z,99.90
2023-04-09T05:03:28.881Z,99.90
2023-04-09T05:06:01.846Z,99.90
2023-04-09T05:08:37.493Z,99.90
2023-04-09T05:11:06.798Z,99.90
2023-04-09T05:13:38.719Z,99.90
2023-04-09T05:16:19.889Z,99.90
2023-04-09T05:18:55.577Z,99.90
2023-04-09T05:21:23.456Z,99.90
2023-04-09T05:23:55.087Z,99.90
2023-04-09T05:26:24.569Z,99.90
2023-04-09T05:28:56.265Z,99.90
2023-04-09T05:31:25.509Z,99.90
2023-04-09T05:34:13.635Z,99.90
2023-04-09T05:36:49.099Z,99.90
2023-04-09T05:39:17.243Z,99.90
2023-04-09T05:41:47.250Z,99.90
2023-04-09T05:44:27.619Z,99.90
2023-04-09T05:47:07.202Z,99.90
2023-04-09T05:49:47.328Z,99.90
2023-04-09T05:52:17.530Z,99.90
2023-04-09T05:54:45.541Z,99.90
2023-04-09T05:57:18.626Z,99.90
2023-04-09T05:59:53.938Z,99.90
2023-04-09T06:02:22.983Z,99.90
2023-04-09T06:04:51.284Z,99.90
2023-04-09T06:07:19.203Z,99.90
2023-04-09T06:09:47.629Z,99.90
2023-04-09T06:12:15.704Z,99.90
2023-04-09T06:14:44.920Z,99.90
2023-04-09T06:17:12.798Z,99.90
2023-04-09T06:19:41.181Z,99.90
2023-04-09T06:22:11.311Z,99.90
2023-04-09T06:24:39.183Z,99.90
2023-04-09T06:27:07.824Z,99.90
2023-04-09T06:29:35.719Z,99.90
2023-04-09T06:32:05.754Z,99.90
2023-04-09T06:34:33.667Z,99.90
2023-04-09T06:37:01.540Z,99.90
2023-04-09T06:39:29.490Z,99.90
2023-04-09T06:41:57.294Z,99.50
2023-04-09T06:44:35.281Z,98.90
2023-04-09T06:47:04.496Z,98.00
2023-04-09T06:49:32.377Z,96.70
2023-04-09T06:52:00.438Z,96.70
2023-04-09T06:54:28.308Z,95.60
2023-04-09T06:56:56.497Z,94.00
2023-04-09T06:59:24.399Z,93.00
2023-04-09T07:01:54.470Z,91.40
2023-04-09T07:04:23.949Z,88.10
2023-04-09T07:09:42.020Z,85.50
2023-04-09T07:12:09.909Z,89.60
2023-04-09T07:14:37.769Z,89.50
2023-04-09T07:17:05.702Z,85.00
2023-04-09T07:19:34.913Z,84.70
2023-04-09T07:22:02.774Z,83.30
2023-04-09T07:24:31.179Z,80.00
2023-04-09T07:26:59.004Z,78.00
2023-04-09T07:29:27.362Z,77.50
2023-04-09T07:31:55.380Z,78.10
2023-04-09T07:34:23.338Z,80.10
2023-04-09T07:36:53.833Z,77.40
2023-04-09T07:39:22.285Z,71.10
2023-04-09T07:41:50.593Z,71.20
2023-04-09T07:44:18.593Z,72.50
2023-04-09T07:46:46.482Z,71.40
2023-04-09T07:49:14.406Z,70.00
2023-04-09T07:51:42.262Z,65.30
2023-04-09T07:54:11.830Z,67.20
2023-04-09T07:56:39.723Z,65.00
2023-04-09T07:59:07.571Z,67.80
2023-04-09T08:01:35.477Z,68.30
2023-04-09T08:04:03.944Z,68.00
2023-04-09T08:06:32.051Z,66.70
2023-04-09T08:08:59.931Z,66.10
2023-04-09T08:11:29.219Z,62.60
2023-04-09T08:13:57.420Z,66.40
2023-04-09T08:16:27.903Z,76.20
2023-04-09T08:18:56.178Z,75.20
2023-04-09T08:21:26.670Z,69.30
2023-04-09T08:23:59.200Z,68.10
2023-04-09T08:26:27.155Z,69.20
2023-04-09T08:28:56.357Z,70.10
2023-04-09T08:31:24.266Z,67.90
2023-04-09T08:33:53.510Z,67.70
2023-04-09T08:36:21.457Z,71.60
2023-04-09T08:38:49.812Z,66.60
2023-04-09T08:41:19.719Z,68.80
2023-04-09T08:43:57.807Z,70.20
2023-04-09T08:46:28.160Z,64.00
2023-04-09T08:48:57.112Z,62.10
2023-04-09T08:51:25.711Z,59.30
2023-04-09T08:53:57.550Z,60.80
2023-04-09T08:56:26.169Z,60.60
2023-04-09T08:58:55.142Z,60.20
2023-04-09T09:01:24.599Z,60.80
2023-04-09T09:04:04.728Z,65.40
2023-04-09T09:06:35.547Z,71.50
2023-04-09T09:09:06.125Z,77.40
2023-04-09T09:11:34.867Z,79.30
2023-04-09T09:14:04.042Z,73.60
2023-04-09T09:16:33.219Z,69.10
2023-04-09T09:19:03.637Z,64.60
2023-04-09T09:21:31.502Z,70.80
2023-04-09T09:23:59.865Z,74.00
2023-04-09T09:26:30.047Z,75.90
2023-04-09T09:28:59.281Z,73.40
2023-04-09T09:31:27.525Z,74.10
2023-04-09T09:33:55.662Z,76.80
2023-04-09T09:36:35.545Z,79.30
2023-04-09T09:39:09.705Z,85.30
2023-04-09T09:41:37.915Z,85.10
2023-04-09T09:44:07.184Z,83.80
2023-04-09T09:46:38.430Z,83.00
2023-04-09T09:49:06.885Z,83.00
2023-04-09T09:51:40.498Z,81.50
2023-04-09T09:54:09.661Z,82.70
2023-04-09T09:56:39.863Z,80.40
2023-04-09T09:59:08.962Z,79.80
2023-04-09T10:01:37.537Z,78.80
2023-04-09T10:04:07.751Z,81.00
2023-04-09T10:06:38.699Z,86.80
2023-04-09T10:09:07.726Z,88.70
2023-04-09T10:11:38.253Z,89.00
2023-04-09T10:14:06.397Z,88.20
2023-04-09T10:16:34.858Z,89.60
2023-04-09T10:19:03.712Z,89.30
2023-04-09T10:21:42.773Z,90.50
2023-04-09T10:24:11.454Z,90.00
2023-04-09T10:26:42.298Z,90.20
2023-04-09T10:29:13.787Z,89.20
2023-04-09T10:31:53.962Z,90.10
2023-04-09T10:34:23.600Z,90.10
2023-04-09T10:36:54.614Z,90.00
2023-04-09T10:39:27.045Z,88.40
2023-04-09T10:41:57.014Z,83.60
2023-04-09T10:44:26.309Z,84.60
2023-04-09T10:46:55.230Z,83.80
2023-04-09T10:49:24.288Z,82.30
2023-04-09T10:51:54.988Z,83.60
2023-04-09T10:54:46.070Z,87.40
2023-04-09T10:57:16.422Z,85.90
2023-04-09T10:59:46.201Z,87.00
2023-04-09T11:02:49.949Z,90.20
2023-04-09T11:05:27.286Z,91.10
2023-04-09T11:08:06.318Z,90.90
2023-04-09T11:10:34.713Z,91.90
2023-04-09T11:13:03.044Z,92.60
2023-04-09T11:15:32.345Z,92.30
2023-04-09T11:18:00.516Z,93.00
2023-04-09T11:20:28.601Z,92.30
2023-04-09T11:22:57.923Z,91.50
2023-04-09T11:25:27.509Z,92.10
2023-04-09T11:27:55.732Z,92.20
2023-04-09T11:30:23.877Z,91.70
2023-04-09T11:32:52.097Z,91.60
2023-04-09T11:35:21.448Z,92.60
2023-04-09T11:37:52.231Z,92.90
2023-04-09T11:40:23.236Z,93.20
2023-04-09T11:42:52.761Z,93.00
2023-04-09T11:45:22.267Z,92.70
2023-04-09T11:47:50.509Z,92.10
2023-04-09T11:50:18.998Z,91.80
2023-04-09T11:52:47.660Z,90.70
2023-04-09T11:55:26.116Z,89.40
2023-04-09T11:57:57.722Z,89.30
2023-04-09T12:00:26.141Z,89.30
2023-04-09T12:03:02.237Z,87.80
2023-04-09T12:05:31.897Z,87.40
2023-04-09T12:08:01.561Z,87.90
2023-04-09T12:10:31.896Z,87.00
2023-04-09T12:13:04.142Z,87.20
2023-04-09T12:15:34.610Z,90.00
2023-04-09T12:18:03.419Z,90.20
2023-04-09T12:20:33.159Z,89.60
2023-04-09T12:23:03.563Z,90.10
2023-04-09T12:25:33.735Z,90.30
2023-04-09T12:28:02.074Z,90.60
2023-04-09T12:30:30.391Z,91.00
2023-04-09T12:32:58.351Z,90.40
2023-04-09T12:35:26.859Z,90.10
2023-04-09T12:37:54.869Z,89.30
2023-04-09T12:40:23.270Z,88.00
2023-04-09T12:42:52.627Z,88.20
2023-04-09T12:45:21.261Z,90.00
2023-04-09T12:47:49.253Z,88.60
2023-04-09T12:50:17.609Z,88.70
2023-04-09T12:52:46.046Z,90.00
2023-04-09T12:55:14.565Z,90.10
2023-04-09T12:57:45.262Z,90.10
2023-04-09T13:00:15.885Z,90.20
2023-04-09T13:02:44.017Z,90.50
2023-04-09T13:05:12.644Z,89.10
2023-04-09T13:07:42.861Z,89.00
2023-04-09T13:10:11.448Z,88.00
2023-04-09T13:12:39.351Z,90.20
2023-04-09T13:15:08.296Z,91.10
2023-04-09T13:17:37.566Z,91.00
2023-04-09T13:20:06.814Z,91.90
2023-04-09T13:22:34.683Z,93.20
2023-04-09T13:25:02.573Z,94.10
2023-04-09T13:27:30.533Z,94.90
2023-04-09T13:29:58.369Z,95.00
2023-04-09T13:32:26.225Z,95.70
2023-04-09T13:34:55.755Z,96.30
2023-04-09T13:37:23.660Z,96.40
2023-04-09T13:39:51.802Z,96.40
2023-04-09T13:42:19.782Z,96.00
2023-04-09T13:44:47.682Z,96.30
2023-04-09T13:47:18.702Z,96.90
2023-04-09T13:49:46.814Z,96.40
2023-04-09T13:52:16.101Z,96.00
2023-04-09T13:54:44.016Z,96.20
2023-04-09T13:57:12.018Z,97.30
2023-04-09T13:59:41.635Z,98.10
2023-04-09T14:02:10.264Z,99.00
2023-04-09T14:04:38.366Z,99.30
2023-04-09T14:07:06.303Z,99.10
2023-04-09T14:09:35.971Z,98.90
2023-04-09T14:12:03.952Z,99.40
2023-04-09T14:14:31.794Z,98.40
2023-04-09T14:16:59.697Z,97.40
2023-04-09T14:19:27.541Z,97.20
2023-04-09T14:21:56.005Z,95.30
2023-04-09T14:24:23.818Z,94.40
2023-04-09T14:26:53.600Z,94.00
2023-04-09T14:29:22.237Z,94.00
2023-04-09T14:31:50.259Z,95.10
2023-04-09T14:34:18.208Z,96.00
2023-04-09T14:36:46.033Z,97.20
2023-04-09T14:39:13.851Z,97.60
2023-04-09T14:41:41.707Z,98.80
2023-04-09T14:44:11.163Z,99.00
2023-04-09T14:46:39.136Z,99.00
2023-04-09T14:49:07.005Z,99.80
2023-04-09T14:51:34.963Z,98.90
2023-04-09T14:54:02.835Z,97.90
2023-04-09T14:56:30.721Z,96.40
2023-04-09T14:58:58.659Z,95.90
2023-04-09T15:01:28.473Z,97.60
2023-04-09T15:03:56.753Z,98.80
2023-04-09T15:06:24.858Z,99.00
2023-04-09T15:08:52.814Z,99.90
2023-04-09T15:11:22.830Z,99.90
2023-04-09T15:13:52.046Z,99.90
2023-04-09T15:16:24.155Z,99.90
2023-04-09T15:18:55.688Z,99.90
2023-04-09T15:21:24.023Z,99.90
2023-04-09T15:23:52.468Z,99.90
2023-04-09T15:26:20.685Z,99.90
2023-04-09T15:28:48.933Z,99.90
2023-04-09T15:31:16.793Z,99.90
2023-04-09T15:33:44.774Z,99.90
2023-04-09T15:36:14.111Z,99.90
2023-04-09T15:38:45.578Z,99.90
2023-04-09T15:41:13.486Z,99.90
2023-04-09T15:43:41.339Z,99.90
2023-04-09T15:46:10.754Z,99.90
2023-04-09T15:48:39.031Z,99.90
2023-04-09T15:51:07.289Z,99.90
2023-04-09T15:53:36.720Z,99.90
2023-04-09T15:56:05.487Z,99.90
2023-04-09T15:58:33.447Z,99.90
2023-04-09T16:01:01.429Z,99.90
2023-04-09T16:03:29.410Z,99.90
2023-04-09T16:05:57.318Z,99.30
2023-04-09T16:08:26.710Z,98.80
2023-04-09T16:10:55.891Z,98.70
2023-04-09T16:13:23.730Z,98.60
2023-04-09T16:15:51.609Z,98.30
2023-04-09T16:18:19.539Z,98.80
2023-04-09T16:20:47.430Z,99.60
2023-04-09T16:23:15.390Z,99.90
2023-04-09T16:25:43.245Z,99.90
2023-04-09T16:28:14.135Z,99.80
2023-04-09T16:30:42.127Z,99.70
2023-04-09T16:33:10.314Z,99.90
2023-04-09T16:35:39.752Z,99.90
2023-04-09T16:38:08.393Z,99.90
2023-04-09T16:40:36.378Z,99.90
2023-04-09T16:43:04.393Z,99.90
2023-04-09T16:45:33.666Z,99.90
2023-04-09T16:48:01.641Z,99.90
2023-04-09T16:50:29.650Z,99.90
2023-04-09T16:52:57.480Z,99.90
2023-04-09T16:55:25.438Z,99.90
2023-04-09T16:57:55.845Z,99.90
2023-04-09T17:00:23.710Z,99.90
2023-04-09T17:02:53.002Z,99.90
2023-04-09T17:05:22.389Z,99.90
2023-04-09T17:07:50.573Z,99.90
2023-04-09T17:10:19.192Z,99.90
2023-04-09T17:12:47.250Z,99.90
2023-04-09T17:15:15.310Z,99.90
2023-04-09T17:17:43.977Z,99.90
2023-04-09T17:20:14.212Z,99.90
2023-04-09T17:22:42.299Z,99.90
2023-04-09T17:25:10.557Z,99.90
2023-04-09T17:27:38.444Z,99.90
2023-04-09T17:30:07.368Z,99.90
2023-04-09T17:32:35.248Z,99.90
2023-04-09T17:35:03.624Z,99.90
2023-04-09T17:37:32.908Z,99.90
2023-04-09T17:40:00.971Z,99.90
2023-04-09T17:42:29.366Z,99.90
2023-04-09T17:44:57.252Z,99.90
2023-04-09T17:47:26.647Z,99.90
2023-04-09T17:49:54.708Z,99.90
2023-04-09T17:52:22.588Z,99.90
2023-04-09T17:54:52.196Z,99.90
2023-04-09T17:57:20.070Z,99.90
2023-04-09T17:59:48.863Z,99.90
2023-04-09T18:02:16.890Z,99.90
2023-04-09T18:04:44.907Z,99.90
2023-04-09T18:07:13.066Z,99.90
2023-04-09T18:09:41.177Z,99.90
2023-04-09T18:12:10.819Z,99.90
2023-04-09T18:14:38.690Z,99.90
2023-04-09T18:17:06.787Z,99.90
2023-04-09T18:19:35.548Z,99.90
2023-04-09T18:22:03.420Z,99.90
2023-04-09T18:24:32.701Z,99.90
2023-04-09T18:27:02.192Z,99.90
2023-04-09T18:29:32.239Z,99.90
2023-04-09T18:32:00.265Z,99.90
2023-04-09T18:34:28.989Z,99.90
2023-04-09T18:36:56.983Z,99.90
2023-04-09T18:39:24.864Z,99.90
2023-04-09T18:41:52.756Z,99.90
2023-04-09T18:44:20.650Z,99.90
2023-04-09T18:46:49.919Z,99.90
2023-04-09T18:49:17.855Z,99.90
2023-04-09T18:51:45.827Z,99.90
2023-04-09T18:54:14.040Z,99.90
2023-04-09T18:56:42.206Z,99.90
2023-04-09T18:59:10.737Z,99.90
2023-04-09T19:01:38.640Z,99.90
2023-04-09T19:04:08.043Z,99.90
2023-04-09T19:06:36.042Z,99.90
2023-04-09T19:09:04.604Z,99.90
2023-04-09T19:11:32.442Z,99.90
2023-04-09T19:14:00.281Z,99.90
2023-04-09T19:16:28.197Z,99.90
2023-04-09T19:18:56.620Z,99.90
2023-04-09T19:21:25.871Z,99.90
2023-04-09T19:23:53.711Z,99.90
2023-04-09T19:26:22.078Z,99.90
2023-04-09T19:28:49.978Z,99.90
2023-04-09T19:31:17.864Z,99.90
2023-04-09T19:33:45.751Z,99.90
2023-04-09T19:36:14.066Z,99.90
2023-04-09T19:38:43.312Z,99.90
2023-04-09T19:41:12.934Z,99.90
2023-04-09T19:43:42.301Z,99.90
2023-04-09T19:46:10.640Z,99.90
2023-04-09T19:48:40.559Z,99.90
2023-04-09T19:51:08.416Z,99.90
2023-04-09T19:53:37.644Z,99.90
2023-04-09T19:56:07.555Z,99.90
2023-04-09T19:58:35.424Z,99.90
2023-04-09T20:01:03.376Z,99.90
2023-04-09T20:03:33.050Z,99.90
2023-04-09T20:06:00.974Z,99.90
2023-04-09T20:08:28.813Z,99.90
2023-04-09T20:10:56.691Z,99.90
2023-04-09T20:13:26.254Z,99.90
2023-04-09T20:15:54.647Z,99.90
2023-04-09T20:18:22.493Z,99.90
2023-04-09T20:20:50.943Z,99.90
2023-04-09T20:23:18.836Z,99.90
2023-04-09T20:25:46.682Z,99.90
2023-04-09T20:28:14.562Z,99.90
2023-04-09T20:30:43.782Z,99.90
2023-04-09T20:33:11.662Z,99.90
2023-04-09T20:35:39.599Z,99.90
2023-04-09T20:38:07.444Z,99.90
2023-04-09T20:40:37.377Z,99.90
2023-04-09T20:43:06.415Z,99.90
2023-04-09T20:45:34.388Z,99.90
2023-04-09T20:48:03.773Z,99.90
2023-04-09T20:50:31.954Z,99.90
2023-04-09T20:52:59.976Z,99.90
2023-04-09T20:55:27.874Z,99.90
2023-04-09T20:57:56.372Z,99.90
2023-04-09T21:00:24.434Z,99.90
2023-04-09T21:02:52.442Z,99.90
2023-04-09T21:05:23.994Z,99.90
2023-04-09T21:07:53.133Z,99.90
2023-04-09T21:10:21.477Z,99.90
2023-04-09T21:12:49.691Z,99.90
2023-04-09T21:15:17.916Z,99.90
2023-04-09T21:17:45.941Z,99.90
2023-04-09T21:20:15.040Z,99.90
2023-04-09T21:22:44.342Z,99.90
2023-04-09T21:25:14.594Z,99.90
2023-04-09T21:27:43.208Z,99.90
2023-04-09T21:30:11.690Z,99.90
2023-04-09T21:32:39.727Z,99.90
2023-04-09T21:35:08.203Z,99.90
2023-04-09T21:37:37.536Z,99.90
2023-04-09T21:40:08.412Z,99.90
2023-04-09T21:42:36.282Z,99.90
2023-04-09T21:45:04.277Z,99.90
2023-04-09T21:47:33.029Z,99.90
2023-04-09T21:50:01.030Z,99.90
2023-04-09T21:52:28.881Z,99.90
2023-04-09T21:54:56.764Z,99.90
2023-04-09T21:57:25.972Z,99.90
2023-04-09T21:59:53.847Z,99.90
2023-04-09T22:02:21.785Z,99.90
2023-04-09T22:04:49.783Z,99.90
2023-04-09T22:07:17.796Z,99.90
2023-04-09T22:09:45.747Z,99.90
2023-04-09T22:12:13.619Z,99.90
2023-04-09T22:14:42.913Z,99.90
2023-04-09T22:17:10.747Z,99.90
2023-04-09T22:19:38.687Z,99.90
2023-04-09T22:22:06.571Z,99.90
2023-04-09T22:24:34.408Z,99.90
2023-04-09T22:27:02.593Z,99.90
2023-04-09T22:29:30.572Z,99.90
2023-04-09T22:31:59.803Z,99.90
2023-04-09T22:34:27.664Z,99.90
2023-04-09T22:36:55.532Z,99.90
2023-04-09T22:39:23.357Z,99.90
2023-04-09T22:41:51.219Z,99.90
2023-04-09T22:44:19.084Z,99.90
2023-04-09T22:46:47.045Z,99.90
2023-04-09T22:49:17.401Z,99.90
2023-04-09T22:51:45.722Z,99.90
2023-04-09T22:54:13.601Z,99.90
2023-04-09T22:56:41.454Z,99.90
2023-04-09T22:59:09.338Z,99.90
2023-04-09T23:01:37.306Z,99.90
2023-04-09T23:04:05.321Z,99.90
2023-04-09T23:06:34.600Z,99.90
2023-04-09T23:09:02.492Z,99.90
2023-04-09T23:11:30.511Z,99.90
2023-04-09T23:13:58.401Z,99.90
2023-04-09T23:16:26.443Z,99.90
2023-04-09T23:18:54.529Z,99.90
2023-04-09T23:21:22.628Z,99.90
2023-04-09T23:23:52.089Z,99.90
2023-04-09T23:26:20.675Z,99.90
2023-04-09T23:28:48.519Z,99.90
2023-04-09T23:31:16.374Z,99.90
2023-04-09T23:33:44.255Z,99.90
2023-04-09T23:36:12.128Z,99.90
2023-04-09T23:38:43.676Z,99.90
2023-04-09T23:41:13.890Z,99.90
2023-04-09T23:43:41.977Z,99.90
2023-04-09T23:46:09.830Z,99.90
2023-04-09T23:48:37.698Z,99.90
2023-04-09T23:51:06.067Z,99.90
2023-04-09T23:53:33.926Z,99.90
2023-04-09T23:56:01.788Z,99.90
2023-04-09T23:58:32.091Z,99.90
